AirNav   Free Bose QuietComfort 20
 
 786 users online  

ME11 Cooper Seaplane Base
Hartford, Maine, USA

GOING TO HARTFORD?


FAA INFORMATION EFFECTIVE 05 DECEMBER 2019

Location

FAA Identifier: ME11
Lat/Long: 44-20-32.2440N 070-17-16.2080W
44-20.537400N 070-17.270133W
44.3422900,-70.2878356
(estimated)
Elevation: 373 ft. / 114 m (estimated)
Variation: 17W (1985)
From city: 3 miles E of HARTFORD, ME
Time zone: UTC -5 (UTC -4 during Daylight Saving Time)
Zip code: 04221

Seaplane Base Operations

Seaplane Base use: Private use. Permission required prior to landing
Activation date: 05/1989
Control tower: no
ARTCC: BOSTON CENTER
FSS: BANGOR FLIGHT SERVICE STATION
Attendance: UNATNDD
Wind indicator: yes
Segmented circle: no

Seaplane Base Communications

WX AWOS-3PT at LEW (18 nm S): 118.025 (207-783-2806)

Nearby radio navigation aids

VOR radial/distance  VOR name  Freq  Var
AUGr292/21.1AUGUSTA VOR/DME114.9518W

Seaplane Base Services

Runway Information

Runway 16W/34W

Dimensions: 4000 x 500 ft. / 1219 x 152 m
Surface: water
RUNWAY 16W  RUNWAY 34W
Traffic pattern: leftleft

Runway 5W/23W

Dimensions: 3000 x 500 ft. / 914 x 152 m
Surface: water
RUNWAY 5W  RUNWAY 23W
Traffic pattern: leftleft
Obstructions: 40 ft. trees, 800 ft. from runway, 20:1 slope to clear40 ft. trees, 800 ft. from runway, 20:1 slope to clear

Seaplane Base Ownership and Management from official FAA records

Ownership: Privately-owned
Owner: MICHAEL D. COOPER
PO BOX 552
N. TURNER, ME 04266
Phone 207-224-7950
Manager: MICHAEL D. COOPER
PO BOX 552
N. TURNER, ME 04266
Phone 207-224-7950

Seaplane Base Operational Statistics

Aircraft based on the field: 1
Single engine airplanes: 1
    

Additional Remarks

FOR CD CTC PORTLAND APCH AT 207-874-7320, WHEN APCH CLSD CTC BOSTON ARTCC AT 603-879-6859.

Instrument Procedures

There are no published instrument procedures at ME11.

Some nearby airports with instrument procedures:

81B - Oxford County Regional Airport (14 nm SW)
KLEW - Auburn/Lewiston Municipal Airport (18 nm S)
KAUG - Augusta State Airport (21 nm E)
0B1 - Bethel Regional Airport (23 nm W)
KWVL - Waterville Robert LaFleur Airport (29 nm NE)
 
Loc | Ops | Rwys | IFR | FBO | Links
Com | Nav | Svcs | Stats | Notes

Auburn-Lewiston Municipal Airport
 
Area around ME11 (Cooper Seaplane Base)
 
Road maps at: MapQuest Bing Google
 
Aerial photo
No photo
 
Sectional chart

 
Airport distance calculator
Flying to Cooper Seaplane Base? Find the distance to fly.

From to ME11

Sunrise and sunset
Times for 15-Dec-2019
 Local
(UTC-5)
 Zulu
(UTC)
Morning civil twilight06:3811:38
Sunrise07:1112:11
Sunset16:0121:01
Evening civil twilight16:3521:35

Current date and time
Zulu (UTC)  15-Dec-2019 18:49:49
Local (UTC-5)  15-Dec-2019 13:49:49
 
METAR
KLEW 
19nm S 
151756Z AUTO 28015G24KT 10SM FEW065 07/M04 A2941 RMK AO2 PK WND 26027/1708 SLP965 T00721044 10078 20050 51028
KAUG 
21nm E 
151753Z AUTO 27008G22KT 230V290 10SM BKN050 OVC060 06/M04 A2939 RMK AO2 PK WND 25026/1741 SLP954 T00611039 10067 20033 53033
KWVL 
29nm E 
151756Z AUTO 27014G31KT 10SM BKN048 OVC055 07/M03 A2935 RMK AO2 PK WND 26031/1749 SLP965 T00671028 10072 20033 53035
KIWI 
33nm SE 
151753Z AUTO 26013G27KT 220V290 10SM BKN065 09/M05 A2941 RMK AO2 PK WND 24031/1724 SLP959 T00891050 10089 20050 51030
KIZG 
36nm SW 
151754Z AUTO 26013G25KT 10SM FEW070 07/M06 A2942 RMK AO2 SLP964 T00671056 10072 20056 53018
TAF
KAUG 
21nm E 
151720Z 1518/1618 26018G28KT P6SM BKN050 FM161000 27010G18KT P6SM SKC FM161200 27009KT P6SM SKC FM161400 28010G18KT P6SM BKN250
NOTAMs
Click for the latest NOTAMs
NOTAMs are issued by the DoD/FAA and will open in a separate window not controlled by AirNav.

 

 
 

Would you like to see your business listed on this page?

 If your business provides an interesting product or service to pilots, flight crews, aircraft, or users of the Cooper Seaplane Base, you should consider listing it here.  To start the listing process, click on the button below
 
Add a business
 

Other Pages about Cooper Seaplane Base

Update a link
 
Copyright © AirNav, LLC. All rights reserved. Privacy Policy  Contact